Time;durP1;ratioP1;P1;durP2;ratioP2;P2;SDS_P1;SDS_P2;PMS_P1;PMS_P2;Temp;Humidity;BMP_temperature;BMP_pressure;BME280_temperature;BME280_humidity;BME280_pressure;Samples;Min_cycle;Max_cycle;Signal;HPM_P1;HPM_P2
2022/06/15 00:02:00;;;;;;;2.40;2.20;;;22.10;99.90;;;;;;4990818;28;20263;-80
2022/06/15 00:04:29;;;;;;;2.53;2.15;;;22.00;99.90;;;;;;4990962;28;20710;-79
2022/06/15 00:06:56;;;;;;;1.75;1.65;;;22.00;99.90;;;;;;4987460;28;20212;-79
2022/06/15 00:09:23;;;;;;;2.08;1.98;;;22.10;99.90;;;;;;4983743;28;20287;-79
2022/06/15 00:11:50;;;;;;;3.47;2.35;;;22.10;99.90;;;;;;4989373;28;20208;-79
2022/06/15 00:14:20;;;;;;;2.53;2.33;;;22.00;99.90;;;;;;4981960;28;20227;-80
2022/06/15 00:16:48;;;;;;;2.63;2.42;;;21.90;99.90;;;;;;4981390;28;20209;-79
2022/06/15 00:19:16;;;;;;;2.30;2.10;;;21.80;99.90;;;;;;4982573;28;20228;-79
2022/06/15 00:21:44;;;;;;;2.72;2.53;;;21.90;99.90;;;;;;4992679;28;20663;-79
2022/06/15 00:24:12;;;;;;;1.80;1.70;;;22.00;99.90;;;;;;4991080;28;20439;-79
2022/06/15 00:26:40;;;;;;;1.77;1.67;;;22.00;99.90;;;;;;4979969;28;20228;-79
2022/06/15 00:29:07;;;;;;;1.90;1.80;;;22.10;99.90;;;;;;4981728;28;20209;-79
2022/06/15 00:31:34;;;;;;;1.67;1.58;;;22.10;99.90;;;;;;4986269;28;20210;-78
2022/06/15 00:34:02;;;;;;;2.03;1.88;;;22.20;99.90;;;;;;4984369;28;20691;-79
2022/06/15 00:36:29;;;;;;;3.35;2.40;;;22.20;99.90;;;;;;4988482;28;20224;-79
2022/06/15 00:38:59;;;;;;;1.70;1.60;;;22.20;99.90;;;;;;4979630;28;20252;-78
2022/06/15 00:41:30;;;;;;;2.50;1.80;;;22.20;99.90;;;;;;4984745;28;20190;-79
2022/06/15 00:43:59;;;;;;;1.80;1.70;;;22.20;99.90;;;;;;4985583;28;20357;-79
2022/06/15 00:46:30;;;;;;;1.60;1.50;;;22.20;99.90;;;;;;4984973;28;20679;-79
2022/06/15 00:49:02;;;;;;;1.60;1.50;;;22.30;99.90;;;;;;4980904;28;20224;-79
2022/06/15 00:51:31;;;;;;;1.70;1.60;;;22.30;99.90;;;;;;4986300;28;20225;-79
2022/06/15 00:54:00;;;;;;;2.15;1.95;;;22.30;99.90;;;;;;4983575;28;20228;-79
2022/06/15 00:56:29;;;;;;;2.42;2.22;;;22.30;99.90;;;;;;4986144;28;20196;-78
2022/06/15 00:59:00;;;;;;;2.60;2.35;;;22.20;99.90;;;;;;4983712;28;20240;-79
2022/06/15 01:01:27;;;;;;;2.20;2.00;;;22.10;99.90;;;;;;4980846;28;20645;-79
2022/06/15 01:03:56;;;;;;;3.17;2.10;;;22.10;99.90;;;;;;4981587;28;20600;-79
2022/06/15 01:06:34;;;;;;;2.30;2.10;;;22.00;99.90;;;;;;4990578;28;20216;-79
2022/06/15 01:09:09;;;;;;;2.65;2.05;;;22.10;99.90;;;;;;4987755;28;20228;-78
2022/06/15 01:11:56;;;;;;;2.47;2.30;;;22.00;99.90;;;;;;4987744;28;20601;-79
2022/06/15 01:15:02;;;;;;;3.38;2.10;;;22.00;99.90;;;;;;4988492;28;20235;-77
2022/06/15 01:17:41;;;;;;;2.40;2.20;;;21.90;99.90;;;;;;4989138;28;20198;-79
2022/06/15 01:20:27;;;;;;;2.30;1.90;;;21.90;99.90;;;;;;4988082;28;20225;-79
2022/06/15 01:23:27;;;;;;;1.90;1.80;;;21.90;99.90;;;;;;4989125;28;20224;-79
2022/06/15 01:26:14;;;;;;;2.20;2.00;;;21.90;99.90;;;;;;4986297;28;20220;-79
2022/06/15 01:28:46;;;;;;;1.95;1.85;;;21.80;99.90;;;;;;4985689;28;20589;-78
2022/06/15 01:31:27;;;;;;;2.00;1.75;;;21.80;99.90;;;;;;4984943;28;20221;-77
2022/06/15 01:34:13;;;;;;;2.03;1.80;;;21.90;99.90;;;;;;4987906;28;20591;-79
2022/06/15 01:36:46;;;;;;;1.88;1.75;;;21.90;99.90;;;;;;4981039;28;20233;-78
2022/06/15 01:39:20;;;;;;;1.67;1.58;;;21.90;99.90;;;;;;4989109;28;20236;-78
2022/06/15 01:41:54;;;;;;;2.33;1.98;;;21.90;99.90;;;;;;4986618;28;20595;-79
2022/06/15 01:44:27;;;;;;;1.70;1.60;;;21.90;99.90;;;;;;4982334;28;20225;-78
2022/06/15 01:46:57;;;;;;;2.00;1.90;;;21.90;99.90;;;;;;4990606;28;20232;-78
2022/06/15 01:49:28;;;;;;;1.85;1.75;;;21.90;99.90;;;;;;4983621;28;20197;-77
2022/06/15 01:51:58;;;;;;;3.55;2.10;;;21.90;99.90;;;;;;4985267;28;20216;-78
2022/06/15 01:54:29;;;;;;;3.28;2.05;;;21.90;99.90;;;;;;4977346;28;20226;-79
2022/06/15 01:56:58;;;;;;;2.20;2.00;;;21.90;99.90;;;;;;4979573;28;20217;-79
2022/06/15 01:59:31;;;;;;;2.05;1.85;;;21.90;99.90;;;;;;4988872;28;20216;-79
2022/06/15 02:02:05;;;;;;;1.92;1.75;;;21.90;99.90;;;;;;4985700;28;20704;-78
2022/06/15 02:04:44;;;;;;;1.48;1.38;;;21.80;99.90;;;;;;4991024;28;20223;-77
2022/06/15 02:07:30;;;;;;;1.80;1.70;;;21.90;99.90;;;;;;4987205;28;20602;-79
2022/06/15 02:10:01;;;;;;;1.75;1.63;;;21.90;99.90;;;;;;4980751;28;20208;-77
2022/06/15 02:12:33;;;;;;;1.85;1.65;;;21.90;99.90;;;;;;4986980;28;20248;-78
2022/06/15 02:15:03;;;;;;;1.77;1.67;;;21.90;99.90;;;;;;4982387;28;20645;-78
2022/06/15 02:17:34;;;;;;;1.73;1.63;;;21.90;99.90;;;;;;4986473;28;20340;-79
2022/06/15 02:20:07;;;;;;;1.83;1.70;;;21.90;99.90;;;;;;4997696;23;20224;-72
2022/06/15 02:22:37;;;;;;;2.08;1.88;;;21.90;99.90;;;;;;4983410;28;20216;-72
2022/06/15 02:25:09;;;;;;;2.13;1.92;;;21.80;99.90;;;;;;4985575;28;20221;-71
2022/06/15 02:27:38;;;;;;;2.00;1.90;;;21.80;99.90;;;;;;4983401;28;20219;-72
2022/06/15 02:30:13;;;;;;;2.83;2.05;;;21.80;99.90;;;;;;4985206;28;20217;-71
2022/06/15 02:32:43;;;;;;;2.30;2.10;;;21.70;99.90;;;;;;4985151;28;20216;-71
2022/06/15 02:35:11;;;;;;;2.17;1.98;;;21.70;99.90;;;;;;4983606;28;20205;-72
2022/06/15 02:37:38;;;;;;;1.83;1.73;;;21.60;99.90;;;;;;4976252;28;20233;-72
2022/06/15 02:40:06;;;;;;;2.00;1.90;;;21.50;99.90;;;;;;4983609;28;20233;-71
2022/06/15 02:42:36;;;;;;;2.28;2.08;;;21.40;99.90;;;;;;4982859;28;20244;-71
2022/06/15 02:45:07;;;;;;;2.13;1.92;;;21.40;99.90;;;;;;4979526;28;20192;-71
2022/06/15 02:47:38;;;;;;;3.60;2.85;;;21.30;99.90;;;;;;4982532;28;20675;-72
2022/06/15 02:50:09;;;;;;;4.85;2.25;;;21.40;99.90;;;;;;4985014;28;20226;-71
2022/06/15 02:52:39;;;;;;;2.92;2.38;;;21.30;99.90;;;;;;4985729;28;20220;-72
2022/06/15 02:55:08;;;;;;;2.47;2.28;;;21.30;99.90;;;;;;4981266;28;20201;-71
2022/06/15 02:57:45;;;;;;;2.38;1.92;;;21.30;99.90;;;;;;4980632;28;20275;-71
2022/06/15 03:00:13;;;;;;;1.90;1.80;;;21.30;99.90;;;;;;4984269;28;20224;-71
2022/06/15 03:02:40;;;;;;;2.20;2.00;;;21.30;99.90;;;;;;4983964;28;20256;-72
2022/06/15 03:05:09;;;;;;;1.95;1.83;;;21.30;99.90;;;;;;4985466;28;20193;-71
2022/06/15 03:07:36;;;;;;;2.10;2.00;;;21.30;99.90;;;;;;4984384;28;20221;-72
2022/06/15 03:10:04;;;;;;;2.10;1.90;;;21.30;99.90;;;;;;4981670;28;20591;-71
2022/06/15 03:12:31;;;;;;;2.50;1.90;;;21.30;99.90;;;;;;4982124;28;20252;-71
2022/06/15 03:14:58;;;;;;;2.40;2.20;;;21.20;99.90;;;;;;4985376;28;20193;-71
2022/06/15 03:17:25;;;;;;;2.00;1.90;;;21.20;99.90;;;;;;4983289;28;20212;-71
2022/06/15 03:19:52;;;;;;;2.38;2.00;;;21.10;99.90;;;;;;4980061;28;20228;-71
2022/06/15 03:22:21;;;;;;;1.88;1.77;;;21.10;99.90;;;;;;4985167;28;20228;-71
2022/06/15 03:24:48;;;;;;;2.03;1.92;;;21.10;99.90;;;;;;4978857;28;20206;-71
2022/06/15 03:27:17;;;;;;;2.13;2.03;;;21.10;99.90;;;;;;4984551;28;20231;-73
2022/06/15 03:29:44;;;;;;;1.95;1.83;;;21.10;99.90;;;;;;4980823;28;20213;-71
2022/06/15 03:32:15;;;;;;;1.80;1.70;;;21.00;99.90;;;;;;4984467;28;20224;-71
2022/06/15 03:34:42;;;;;;;2.03;1.80;;;21.00;99.90;;;;;;4982726;28;20623;-71
2022/06/15 03:37:10;;;;;;;2.35;2.10;;;21.00;99.90;;;;;;4983897;28;20223;-72
2022/06/15 03:39:39;;;;;;;2.00;1.90;;;21.00;99.90;;;;;;5001535;28;20216;-71
2022/06/15 03:42:10;;;;;;;1.80;1.70;;;21.00;99.90;;;;;;4988664;28;20221;-71
2022/06/15 03:44:37;;;;;;;2.00;1.90;;;21.00;99.90;;;;;;4982878;28;20613;-71
2022/06/15 03:47:06;;;;;;;1.80;1.70;;;21.00;99.90;;;;;;4980416;28;20271;-72
2022/06/15 03:49:33;;;;;;;2.05;1.95;;;21.00;99.90;;;;;;4983278;28;20232;-71
2022/06/15 03:52:00;;;;;;;2.17;2.08;;;20.90;99.90;;;;;;4984867;28;20225;-71
2022/06/15 03:54:27;;;;;;;2.65;2.00;;;20.90;99.90;;;;;;4984628;28;20201;-71
2022/06/15 03:56:55;;;;;;;2.95;2.00;;;20.90;99.90;;;;;;4985425;28;20220;-70
2022/06/15 03:59:23;;;;;;;3.42;2.25;;;20.90;99.90;;;;;;4979607;28;20291;-71
2022/06/15 04:01:50;;;;;;;2.63;2.28;;;20.90;99.90;;;;;;4980158;28;20237;-72
2022/06/15 04:04:17;;;;;;;2.30;2.10;;;20.80;99.90;;;;;;4984116;28;20224;-71
2022/06/15 04:06:45;;;;;;;2.50;2.30;;;20.70;99.90;;;;;;4982187;28;20635;-71
2022/06/15 04:09:11;;;;;;;2.97;2.35;;;20.70;99.90;;;;;;4979086;28;20280;-71
2022/06/15 04:14:24;;;;;;;2.42;2.20;;;20.70;99.90;;;;;;4982390;28;20569;-71
2022/06/15 04:16:54;;;;;;;2.00;1.90;;;20.80;99.90;;;;;;4984435;28;20583;-71
2022/06/15 04:19:21;;;;;;;2.20;2.00;;;20.80;99.90;;;;;;4984217;28;20691;-71
2022/06/15 04:21:49;;;;;;;1.85;1.60;;;20.90;99.90;;;;;;4982647;28;20235;-71
2022/06/15 04:24:17;;;;;;;1.98;1.88;;;20.90;99.90;;;;;;4980369;28;20204;-72
2022/06/15 04:26:45;;;;;;;1.92;1.83;;;21.00;99.90;;;;;;4984152;28;20209;-71
2022/06/15 04:29:13;;;;;;;1.90;1.80;;;21.00;99.90;;;;;;4981585;28;20220;-71
2022/06/15 04:31:42;;;;;;;2.05;1.95;;;21.00;99.90;;;;;;4980555;28;20228;-72
2022/06/15 04:34:10;;;;;;;2.38;2.17;;;21.00;99.90;;;;;;4980341;28;20248;-71
2022/06/15 04:36:39;;;;;;;1.80;1.70;;;21.00;99.90;;;;;;4982245;28;20197;-72
2022/06/15 04:39:08;;;;;;;2.05;1.95;;;21.00;99.90;;;;;;4988291;28;20197;-71
2022/06/15 04:41:36;;;;;;;2.17;2.00;;;21.00;99.90;;;;;;4988550;28;20224;-72
2022/06/15 04:44:04;;;;;;;2.63;1.88;;;21.00;99.90;;;;;;4979036;28;20197;-71
2022/06/15 04:46:32;;;;;;;1.88;1.77;;;21.10;99.90;;;;;;4981979;28;20206;-71
2022/06/15 04:49:00;;;;;;;2.33;2.13;;;21.10;99.90;;;;;;4981179;28;20205;-71
2022/06/15 04:51:29;;;;;;;3.25;2.05;;;21.20;99.90;;;;;;4985631;28;20711;-71
2022/06/15 04:53:58;;;;;;;2.05;1.90;;;21.30;99.90;;;;;;4984339;28;20221;-71
2022/06/15 04:56:26;;;;;;;2.20;2.00;;;21.30;99.90;;;;;;4981097;28;20224;-71
2022/06/15 04:58:53;;;;;;;2.50;2.25;;;21.40;99.90;;;;;;4982538;28;20247;-72
2022/06/15 05:01:21;;;;;;;2.50;2.30;;;21.50;99.90;;;;;;4982186;28;20217;-72
2022/06/15 05:03:48;;;;;;;2.38;2.17;;;21.50;99.90;;;;;;4984188;28;20226;-71
2022/06/15 05:06:32;;;;;;;2.70;2.50;;;21.40;99.90;;;;;;4983144;28;20205;-71
2022/06/15 05:08:59;;;;;;;2.30;2.20;;;21.40;99.90;;;;;;4988908;28;20240;-71
2022/06/15 05:11:27;;;;;;;2.45;2.25;;;21.40;99.90;;;;;;4999374;28;20291;-71
2022/06/15 05:13:55;;;;;;;2.80;2.60;;;21.50;99.90;;;;;;4984160;28;20221;-71
2022/06/15 05:16:22;;;;;;;2.25;2.10;;;21.50;99.90;;;;;;4986432;28;20216;-72
2022/06/15 05:18:49;;;;;;;2.83;2.60;;;21.50;99.90;;;;;;4991514;28;20232;-71
2022/06/15 05:21:16;;;;;;;3.42;2.65;;;21.60;99.90;;;;;;4987231;28;20227;-71
2022/06/15 05:23:45;;;;;;;2.70;2.50;;;21.60;99.90;;;;;;4987840;28;20217;-71
2022/06/15 05:26:13;;;;;;;2.90;2.35;;;21.70;99.90;;;;;;4988890;28;20193;-72
2022/06/15 05:28:41;;;;;;;2.67;2.45;;;21.80;99.90;;;;;;4988056;28;20223;-71
2022/06/15 05:31:12;;;;;;;5.78;2.58;;;22.00;99.90;;;;;;4987482;28;20213;-71
2022/06/15 05:33:40;;;;;;;2.45;2.35;;;22.20;99.90;;;;;;4988606;28;20217;-72
2022/06/15 05:36:10;;;;;;;3.20;3.00;;;22.30;99.90;;;;;;4988081;28;20303;-72
2022/06/15 05:38:37;;;;;;;4.25;2.97;;;22.50;99.90;;;;;;4982973;28;20232;-72
2022/06/15 05:41:06;;;;;;;3.53;2.78;;;22.70;99.90;;;;;;4982972;28;20624;-72
2022/06/15 05:43:33;;;;;;;3.38;3.17;;;22.80;99.90;;;;;;4981537;28;20299;-71
2022/06/15 05:46:11;;;;;;;5.10;3.40;;;22.90;99.90;;;;;;4981518;28;20624;-72
2022/06/15 05:48:39;;;;;;;4.00;3.60;;;22.90;99.90;;;;;;4984906;28;20223;-72
2022/06/15 05:51:06;;;;;;;4.50;3.72;;;22.90;99.90;;;;;;4982355;28;20225;-72
2022/06/15 05:53:33;;;;;;;3.92;3.33;;;22.90;99.90;;;;;;4989471;28;20251;-72
2022/06/15 05:56:00;;;;;;;4.15;3.67;;;22.90;99.90;;;;;;4982419;28;20691;-73
2022/06/15 05:58:28;;;;;;;4.00;3.70;;;22.80;99.90;;;;;;4980818;28;20229;-72
2022/06/15 06:00:56;;;;;;;4.90;3.33;;;22.80;99.90;;;;;;4984308;28;20228;-72
2022/06/15 06:03:23;;;;;;;4.22;3.58;;;22.90;99.90;;;;;;4983455;28;20216;-72
2022/06/15 06:05:50;;;;;;;3.58;3.28;;;23.20;99.90;;;;;;4982007;28;20193;-73
2022/06/15 06:08:17;;;;;;;7.38;3.55;;;23.30;99.90;;;;;;4980805;28;20591;-71
2022/06/15 06:10:44;;;;;;;6.32;3.97;;;23.40;99.90;;;;;;4978545;28;20654;-71
2022/06/15 06:13:11;;;;;;;3.95;3.50;;;23.50;99.90;;;;;;4973764;28;21225;-71
2022/06/15 06:15:39;;;;;;;4.93;3.10;;;23.50;99.90;;;;;;4975222;28;20193;-71
2022/06/15 06:18:07;;;;;;;6.57;3.53;;;23.50;99.90;;;;;;4978567;28;20221;-71
2022/06/15 06:20:34;;;;;;;4.35;3.45;;;23.70;99.90;;;;;;4975289;28;20229;-71
2022/06/15 06:23:01;;;;;;;4.75;3.58;;;23.80;99.90;;;;;;4976040;28;20209;-70
2022/06/15 06:25:29;;;;;;;3.75;3.30;;;23.90;99.90;;;;;;4974010;28;20216;-71
2022/06/15 06:27:56;;;;;;;5.03;3.47;;;24.00;99.90;;;;;;4976646;28;20326;-70
2022/06/15 06:30:23;;;;;;;4.55;3.63;;;24.10;99.90;;;;;;4977643;28;20254;-70
2022/06/15 06:32:52;;;;;;;3.05;2.83;;;24.20;99.90;;;;;;4974798;28;20216;-73
2022/06/15 06:35:19;;;;;;;4.45;3.05;;;24.30;99.90;;;;;;4978343;28;20205;-71
2022/06/15 06:37:46;;;;;;;3.53;3.22;;;24.50;99.90;;;;;;4980206;28;20287;-70
2022/06/15 06:40:16;;;;;;;5.05;3.35;;;24.50;99.90;;;;;;4978243;28;20228;-72
2022/06/15 06:42:43;;;;;;;3.90;2.78;;;24.50;99.90;;;;;;4977944;28;20236;-73
2022/06/15 06:45:12;;;;;;;3.58;3.28;;;24.50;99.90;;;;;;4972278;28;20607;-72
2022/06/15 06:47:40;;;;;;;3.42;3.00;;;24.60;99.90;;;;;;4982249;28;20365;-71
2022/06/15 06:50:10;;;;;;;2.92;2.72;;;24.60;99.90;;;;;;4975270;28;20249;-71
2022/06/15 06:52:37;;;;;;;3.70;2.83;;;24.70;99.90;;;;;;4977190;28;20228;-73
2022/06/15 06:55:05;;;;;;;3.13;2.83;;;24.80;99.90;;;;;;4976464;28;20605;-71
2022/06/15 06:57:32;;;;;;;3.25;2.95;;;24.80;99.90;;;;;;4979279;28;20221;-71
2022/06/15 06:59:59;;;;;;;6.50;3.13;;;24.80;99.90;;;;;;4977910;28;20699;-72
2022/06/15 07:02:26;;;;;;;3.72;3.42;;;24.80;99.90;;;;;;4977125;28;20734;-72
2022/06/15 07:04:53;;;;;;;5.85;3.90;;;24.80;99.90;;;;;;4974260;28;20676;-72
2022/06/15 07:07:22;;;;;;;6.45;3.53;;;24.90;99.90;;;;;;4970704;28;20202;-71
2022/06/15 07:09:49;;;;;;;5.25;3.63;;;25.00;99.90;;;;;;4977193;28;20894;-73
2022/06/15 07:12:16;;;;;;;4.45;3.72;;;25.00;99.90;;;;;;4976176;28;20927;-73
2022/06/15 07:14:43;;;;;;;5.90;3.55;;;25.10;99.90;;;;;;4974416;28;20828;-71
2022/06/15 07:17:10;;;;;;;3.55;3.25;;;25.20;99.90;;;;;;4974110;28;20613;-71
2022/06/15 07:19:37;;;;;;;3.50;3.20;;;25.40;99.90;;;;;;4973537;28;20205;-71
2022/06/15 07:22:04;;;;;;;3.05;2.78;;;25.40;99.90;;;;;;4974547;28;20217;-71
2022/06/15 07:24:33;;;;;;;3.63;3.28;;;25.50;99.90;;;;;;4972238;28;20228;-71
2022/06/15 07:27:00;;;;;;;3.67;3.38;;;25.70;99.90;;;;;;4975025;28;20612;-71
2022/06/15 07:29:27;;;;;;;4.20;3.40;;;25.70;99.90;;;;;;4972596;28;20217;-71
2022/06/15 07:31:56;;;;;;;3.97;3.58;;;25.70;99.90;;;;;;4972567;28;20205;-71
2022/06/15 07:34:24;;;;;;;4.65;3.28;;;25.70;99.90;;;;;;4970396;28;20326;-71
2022/06/15 07:36:52;;;;;;;3.60;3.30;;;25.70;99.90;;;;;;4966398;28;20200;-71
2022/06/15 07:39:21;;;;;;;4.60;3.40;;;25.80;99.90;;;;;;4975953;28;20217;-72
2022/06/15 07:41:49;;;;;;;3.13;2.92;;;25.70;99.90;;;;;;4975103;28;20224;-72
2022/06/15 07:44:18;;;;;;;3.42;3.22;;;25.70;99.90;;;;;;4974522;28;20221;-73
2022/06/15 07:46:45;;;;;;;4.15;3.20;;;26.00;99.90;;;;;;4974357;28;20203;-71
2022/06/15 07:51:59;;;;;;;4.38;3.47;;;25.90;99.90;;;;;;4975090;28;20196;-72
2022/06/15 07:54:28;;;;;;;3.60;3.30;;;26.00;99.90;;;;;;4979727;28;20594;-71
2022/06/15 07:56:57;;;;;;;4.10;3.58;;;26.20;99.90;;;;;;4976398;28;20678;-72
2022/06/15 07:59:25;;;;;;;3.88;3.58;;;26.20;99.90;;;;;;4973741;28;20538;-71
2022/06/15 08:01:52;;;;;;;3.75;3.45;;;26.20;99.90;;;;;;4973016;28;20589;-72
2022/06/15 08:04:20;;;;;;;3.92;3.55;;;26.30;99.90;;;;;;4970740;28;20735;-72
2022/06/15 08:06:48;;;;;;;4.13;3.35;;;26.60;99.90;;;;;;4973953;28;20197;-71
2022/06/15 08:09:16;;;;;;;5.13;3.35;;;26.80;99.90;;;;;;4973008;28;21680;-71
2022/06/15 08:12:11;;;;;;;4.20;3.35;;;27.10;99.90;;;;;;4974835;28;20782;-69
2022/06/15 08:14:36;;;;;;;3.60;3.17;;;27.10;99.90;;;;;;4975555;28;20224;-71
2022/06/15 08:17:04;;;;;;;3.47;3.17;;;26.90;99.90;;;;;;4973497;28;20290;-71
2022/06/15 08:19:34;;;;;;;3.55;2.85;;;26.90;99.90;;;;;;4971687;28;20233;-72
2022/06/15 08:22:02;;;;;;;3.83;3.50;;;26.80;99.90;;;;;;4972698;23;20723;-84
2022/06/15 08:24:29;;;;;;;4.55;3.45;;;26.70;99.90;;;;;;4964531;28;20703;-85
2022/06/15 08:26:57;;;;;;;4.70;3.58;;;26.70;99.90;;;;;;4955905;28;20560;-85
2022/06/15 08:29:24;;;;;;;3.28;3.05;;;26.70;99.90;;;;;;4960966;28;20221;-87
2022/06/15 08:31:57;;;;;;;4.40;4.00;;;26.90;99.90;;;;;;4960427;28;20203;-87
2022/06/15 08:34:24;;;;;;;3.72;3.40;;;27.00;99.90;;;;;;4964110;28;20263;-87
2022/06/15 08:36:52;;;;;;;6.18;4.22;;;26.90;99.90;;;;;;4963323;28;20193;-85
2022/06/15 08:39:19;;;;;;;4.70;3.75;;;27.00;99.90;;;;;;4964439;28;20220;-86
2022/06/15 08:41:53;;;;;;;3.85;3.55;;;27.00;99.90;;;;;;4969136;28;20312;-84
2022/06/15 08:44:31;;;;;;;3.78;3.47;;;27.20;99.90;;;;;;4949096;28;20734;-86
2022/06/15 08:47:09;;;;;;;5.82;3.75;;;27.60;99.90;;;;;;4952007;28;20201;-85
2022/06/15 08:49:47;;;;;;;3.97;3.42;;;27.60;99.90;;;;;;4959686;28;20787;-85
2022/06/15 08:52:19;;;;;;;4.18;3.65;;;27.60;99.90;;;;;;4961608;28;20193;-84
2022/06/15 08:54:55;;;;;;;3.90;3.55;;;27.50;99.90;;;;;;4960905;28;20350;-86
2022/06/15 08:57:31;;;;;;;3.28;2.97;;;27.40;99.90;;;;;;4955906;28;20251;-83
2022/06/15 09:00:04;;;;;;;5.10;3.20;;;27.50;99.90;;;;;;4958645;28;20224;-84
2022/06/15 09:02:42;;;;;;;3.75;2.97;;;27.50;99.90;;;;;;4954807;28;20280;-86
2022/06/15 09:05:18;;;;;;;3.75;3.38;;;27.60;99.90;;;;;;4955262;28;20692;-85
2022/06/15 09:08:01;;;;;;;5.97;3.92;;;27.80;99.90;;;;;;4954826;28;20205;-86
2022/06/15 09:10:46;;;;;;;3.97;3.47;;;27.90;99.90;;;;;;4958939;28;20225;-85
2022/06/15 09:13:33;;;;;;;5.22;3.63;;;28.00;99.90;;;;;;4957809;28;20229;-87
2022/06/15 09:16:07;;;;;;;3.25;3.05;;;28.00;99.90;;;;;;4953679;28;20210;-86
2022/06/15 09:18:42;;;;;;;4.25;3.22;;;28.10;99.90;;;;;;4960985;28;20287;-86
2022/06/15 09:21:15;;;;;;;5.38;3.50;;;28.50;99.90;;;;;;4956914;28;20269;-85
2022/06/15 09:23:48;;;;;;;3.92;3.63;;;28.60;99.90;;;;;;4957850;28;20240;-85
2022/06/15 09:26:22;;;;;;;4.72;2.80;;;28.50;99.90;;;;;;4945432;28;20209;-86
2022/06/15 09:28:53;;;;;;;3.20;2.92;;;28.60;99.90;;;;;;4960751;28;20321;-84
2022/06/15 09:31:26;;;;;;;3.30;2.88;;;28.80;99.90;;;;;;4961688;28;20212;-84
2022/06/15 09:34:00;;;;;;;5.10;3.30;;;29.10;99.90;;;;;;4956453;28;20228;-84
2022/06/15 09:36:31;;;;;;;3.17;2.88;;;29.20;99.90;;;;;;4959342;28;20212;-85
2022/06/15 09:38:58;;;;;;;5.28;3.10;;;29.30;99.90;;;;;;4959138;28;21007;-82
2022/06/15 09:41:29;;;;;;;2.92;2.70;;;29.40;99.90;;;;;;4959867;28;20205;-81
2022/06/15 09:44:14;;;;;;;6.60;3.10;;;29.40;99.90;;;;;;4958362;28;20256;-82
2022/06/15 09:46:50;;;;;;;3.95;3.10;;;29.40;99.90;;;;;;4956362;28;20285;-80
2022/06/15 09:49:35;;;;;;;3.40;2.80;;;29.40;99.90;;;;;;4952174;28;21248;-84
2022/06/15 09:52:09;;;;;;;3.30;3.00;;;29.70;99.90;;;;;;4953043;28;20198;-82
2022/06/15 09:54:46;;;;;;;2.88;2.67;;;29.90;99.90;;;;;;4948131;28;20924;-80
2022/06/15 09:57:14;;;;;;;3.53;2.85;;;30.30;99.90;;;;;;4955571;28;20209;-82
2022/06/15 09:59:41;;;;;;;3.45;3.00;;;30.00;99.90;;;;;;4963439;28;20233;-79
2022/06/15 10:02:24;;;;;;;6.22;2.85;;;30.00;99.90;;;;;;4956390;28;20730;-82
2022/06/15 10:04:53;;;;;;;5.13;3.33;;;30.00;99.90;;;;;;4954914;28;20264;-81
2022/06/15 10:07:28;;;;;;;4.25;3.78;;;29.70;99.90;;;;;;4959234;28;20207;-84
2022/06/15 10:10:00;;;;;;;3.70;3.30;;;29.40;99.90;;;;;;4957377;28;20231;-82
2022/06/15 10:12:56;;;;;;;3.33;3.03;;;29.10;99.90;;;;;;4956313;28;20351;-82
2022/06/15 10:15:26;;;;;;;7.55;3.80;;;29.10;99.90;;;;;;4954071;28;20225;-84
2022/06/15 10:17:55;;;;;;;3.35;2.97;;;29.20;99.90;;;;;;4954981;28;20730;-80
2022/06/15 10:20:30;;;;;;;5.68;3.50;;;29.10;99.90;;;;;;4956444;28;20699;-82
2022/06/15 10:23:00;;;;;;;12.32;3.60;;;29.10;99.90;;;;;;4953654;28;20244;-81
2022/06/15 10:25:32;;;;;;;3.50;3.20;;;29.00;99.90;;;;;;4944103;28;20308;-79
2022/06/15 10:28:13;;;;;;;4.72;3.58;;;29.00;99.90;;;;;;4942929;28;21379;-84
2022/06/15 10:30:52;;;;;;;3.70;3.40;;;29.40;99.90;;;;;;4950592;28;20279;-80
2022/06/15 10:33:20;;;;;;;4.22;3.15;;;29.60;99.90;;;;;;4947513;28;20289;-82
2022/06/15 10:35:56;;;;;;;5.47;3.63;;;29.50;99.90;;;;;;4934391;28;20316;-81
2022/06/15 10:38:27;;;;;;;3.65;3.35;;;29.70;99.90;;;;;;4938731;28;20201;-83
2022/06/15 10:41:45;;;;;;;6.05;3.33;;;29.70;99.90;;;;;;4930673;28;20589;-78
2022/06/15 10:43:47;;;;;;;3.85;3.33;;;29.60;99.90;;;;;;4957082;28;20233;-83
2022/06/15 10:46:17;;;;;;;3.83;3.50;;;29.70;99.90;;;;;;4957556;28;20804;-86
2022/06/15 10:48:46;;;;;;;3.70;3.40;;;29.70;99.90;;;;;;4949255;28;20209;-86
2022/06/15 10:51:18;;;;;;;3.72;3.17;;;29.70;99.90;;;;;;4949544;28;20236;-82
2022/06/15 10:53:49;;;;;;;5.40;3.50;;;29.90;99.90;;;;;;4949018;28;22325;-86
2022/06/15 11:02:18;;;;;;;5.45;3.47;;;29.90;99.90;;;;;;4949766;28;20252;-86
2022/06/15 11:04:55;;;;;;;3.47;3.15;;;29.90;99.90;;;;;;4948115;28;20569;-84
2022/06/15 11:07:33;;;;;;;5.18;3.30;;;29.90;99.90;;;;;;4951207;28;20335;-83
2022/06/15 11:10:11;;;;;;;3.75;3.22;;;30.00;99.90;;;;;;4953666;28;20206;-82
2022/06/15 11:12:45;;;;;;;3.47;3.17;;;30.10;99.90;;;;;;4952752;28;20640;-84
2022/06/15 11:18:29;;;;;;;3.40;3.10;;;30.30;99.90;;;;;;4952034;28;20263;-83
2022/06/15 11:21:02;;;;;;;3.25;2.97;;;30.50;99.90;;;;;;4951497;28;22190;-84
2022/06/15 11:23:39;;;;;;;3.28;2.97;;;30.50;99.90;;;;;;4952291;28;20234;-85
2022/06/15 11:28:58;;;;;;;4.45;3.13;;;30.70;99.90;;;;;;4954853;28;20221;-85
2022/06/15 11:31:30;;;;;;;3.58;3.17;;;30.70;99.90;;;;;;4958309;28;20221;-85
2022/06/15 11:34:02;;;;;;;4.47;2.97;;;30.70;99.90;;;;;;4954718;28;20222;-87
2022/06/15 11:36:34;;;;;;;3.38;3.00;;;30.60;99.90;;;;;;4956383;28;21149;-84
2022/06/15 11:39:10;;;;;;;4.32;3.20;;;30.60;99.90;;;;;;4958297;28;20229;-87
2022/06/15 11:41:44;;;;;;;3.83;3.50;;;30.50;99.90;;;;;;4953951;28;20197;-85
2022/06/15 11:44:16;;;;;;;3.45;3.15;;;30.70;99.90;;;;;;4954223;28;20599;-87
2022/06/15 11:46:57;;;;;;;3.55;3.25;;;30.70;99.90;;;;;;4957138;28;20577;-85
2022/06/15 11:49:35;;;;;;;5.20;3.17;;;30.70;99.90;;;;;;4960456;28;20221;-84
2022/06/15 11:52:23;;;;;;;3.45;3.15;;;30.50;99.90;;;;;;4961805;28;20201;-85
2022/06/15 11:55:14;;;;;;;3.85;2.92;;;30.50;99.90;;;;;;4963274;28;20256;-85
2022/06/15 11:57:51;;;;;;;3.97;3.53;;;30.50;99.90;;;;;;4966118;28;20201;-84
2022/06/15 12:00:28;;;;;;;4.85;3.40;;;30.50;99.90;;;;;;4964371;28;20217;-85
2022/06/15 12:03:26;;;;;;;3.30;3.08;;;30.50;99.90;;;;;;4963181;28;20221;-85
2022/06/15 12:05:58;;;;;;;4.18;3.53;;;30.60;99.90;;;;;;4960199;28;20229;-85
2022/06/15 12:08:33;;;;;;;4.43;3.42;;;30.50;99.90;;;;;;4962429;28;20233;-86
2022/06/15 12:12:37;;;;;;;3.72;3.33;;;30.60;99.90;;;;;;4960012;28;20264;-85
2022/06/15 12:14:05;;;;;;;3.83;3.28;;;30.70;99.90;;;;;;4957981;28;20713;-86
2022/06/15 12:16:38;;;;;;;4.25;3.20;;;30.90;99.90;;;;;;4961595;28;20212;-85
2022/06/15 12:19:13;;;;;;;4.60;3.33;;;30.80;99.90;;;;;;4959886;28;20225;-84
2022/06/15 12:21:46;;;;;;;4.53;3.15;;;30.80;99.90;;;;;;4963399;28;20809;-86
2022/06/15 12:24:19;;;;;;;3.50;3.20;;;30.80;99.90;;;;;;4962018;28;20243;-85
2022/06/15 12:27:01;;;;;;;3.70;3.17;;;30.80;99.90;;;;;;4958623;28;20229;-85
2022/06/15 12:29:41;;;;;;;3.92;3.10;;;30.70;99.90;;;;;;4959282;28;20378;-85
2022/06/15 12:32:44;;;;;;;6.38;3.35;;;30.90;99.90;;;;;;4959355;28;20755;-85
2022/06/15 12:35:30;;;;;;;3.50;3.17;;;30.90;99.90;;;;;;4958433;28;20225;-84
2022/06/15 12:38:03;;;;;;;3.70;3.40;;;30.70;99.90;;;;;;4960755;28;20212;-86
2022/06/15 12:40:33;;;;;;;3.83;3.33;;;30.40;99.90;;;;;;4961570;28;20228;-85
2022/06/15 12:43:15;;;;;;;5.10;3.58;;;30.30;99.90;;;;;;4959216;28;20228;-87
2022/06/15 12:45:47;;;;;;;7.35;3.90;;;30.00;99.90;;;;;;4960787;28;20229;-88
2022/06/15 12:48:26;;;;;;;4.32;3.65;;;29.80;99.90;;;;;;4960983;28;20199;-86
2022/06/15 12:51:02;;;;;;;5.45;3.83;;;29.60;99.90;;;;;;4957705;28;20222;-86
2022/06/15 12:53:39;;;;;;;4.35;3.35;;;29.20;99.90;;;;;;4960427;28;20194;-85
2022/06/15 12:56:20;;;;;;;3.78;3.22;;;29.10;99.90;;;;;;4961041;28;20227;-84
2022/06/15 12:59:01;;;;;;;5.03;3.28;;;29.40;99.90;;;;;;4962203;28;20204;-88
2022/06/15 13:01:36;;;;;;;3.92;3.40;;;29.80;99.90;;;;;;4957545;28;20204;-86
2022/06/15 13:04:13;;;;;;;3.65;3.35;;;30.10;99.90;;;;;;4960430;28;20325;-86
2022/06/15 13:06:41;;;;;;;5.10;3.20;;;29.90;99.90;;;;;;4960989;28;20202;-85
2022/06/15 13:09:19;;;;;;;8.07;3.88;;;29.50;99.90;;;;;;4959416;28;20221;-83
2022/06/15 13:12:04;;;;;;;6.22;3.72;;;29.00;99.90;;;;;;4958332;28;20304;-83
2022/06/15 13:14:35;;;;;;;5.30;3.85;;;28.60;99.90;;;;;;4958180;28;20226;-86
2022/06/15 13:17:12;;;;;;;6.88;3.88;;;28.30;99.90;;;;;;4962445;28;20788;-85
2022/06/15 13:19:43;;;;;;;4.28;3.72;;;28.00;99.90;;;;;;4958615;28;20759;-84
2022/06/15 13:22:17;;;;;;;3.92;3.53;;;27.90;99.90;;;;;;4960466;28;20217;-85
2022/06/15 13:24:56;;;;;;;4.25;3.55;;;27.70;99.90;;;;;;4956376;28;20562;-85
2022/06/15 13:27:30;;;;;;;3.80;3.25;;;27.70;99.90;;;;;;4960161;28;20888;-85
2022/06/15 13:30:27;;;;;;;3.97;3.60;;;27.60;99.90;;;;;;4957246;28;20695;-90